sensor_id;sensor_type;location;lat;lon;timestamp;pressure;altitude;pressure_sealevel;temperature;humidity
34328;BME280;20588;48.840;10.064;2022-10-16T00:01:10;96413.63;;;14.84;nan
34328;BME280;20588;48.840;10.064;2022-10-16T00:03:38;96413.88;;;14.83;nan
34328;BME280;20588;48.840;10.064;2022-10-16T00:06:04;96412.53;;;14.80;nan
34328;BME280;20588;48.840;10.064;2022-10-16T00:08:31;96408.94;;;14.81;nan
34328;BME280;20588;48.840;10.064;2022-10-16T00:11:09;96401.41;;;14.80;nan
34328;BME280;20588;48.840;10.064;2022-10-16T00:13:38;96394.63;;;14.79;nan
34328;BME280;20588;48.840;10.064;2022-10-16T00:16:05;96400.59;;;14.79;nan
34328;BME280;20588;48.840;10.064;2022-10-16T00:18:32;96398.50;;;14.76;nan
34328;BME280;20588;48.840;10.064;2022-10-16T00:21:16;96400.84;;;14.78;nan
34328;BME280;20588;48.840;10.064;2022-10-16T00:23:42;96396.75;;;14.82;nan
34328;BME280;20588;48.840;10.064;2022-10-16T00:26:13;96400.84;;;14.78;nan
34328;BME280;20588;48.840;10.064;2022-10-16T00:28:40;96405.22;;;14.77;nan
34328;BME280;20588;48.840;10.064;2022-10-16T00:31:08;96406.34;;;14.81;nan
34328;BME280;20588;48.840;10.064;2022-10-16T00:33:37;96419.53;;;14.80;nan
34328;BME280;20588;48.840;10.064;2022-10-16T00:36:04;96416.94;;;14.80;nan
34328;BME280;20588;48.840;10.064;2022-10-16T00:38:31;96423.59;;;14.76;nan
34328;BME280;20588;48.840;10.064;2022-10-16T00:40:58;96422.28;;;14.73;nan
34328;BME280;20588;48.840;10.064;2022-10-16T00:43:47;96426.91;;;14.71;nan
34328;BME280;20588;48.840;10.064;2022-10-16T00:48:54;96410.56;;;14.87;nan
34328;BME280;20588;48.840;10.064;2022-10-16T00:51:28;96422.41;;;14.83;nan
34328;BME280;20588;48.840;10.064;2022-10-16T00:53:56;96418.75;;;14.79;nan
34328;BME280;20588;48.840;10.064;2022-10-16T00:56:22;96426.50;;;14.79;nan
34328;BME280;20588;48.840;10.064;2022-10-16T00:58:48;96416.47;;;14.83;nan
34328;BME280;20588;48.840;10.064;2022-10-16T01:01:15;96415.28;;;14.90;nan
34328;BME280;20588;48.840;10.064;2022-10-16T01:03:41;96414.91;;;15.03;nan
34328;BME280;20588;48.840;10.064;2022-10-16T01:06:41;96422.63;;;14.98;nan
34328;BME280;20588;48.840;10.064;2022-10-16T01:12:09;96413.56;;;15.39;nan
34328;BME280;20588;48.840;10.064;2022-10-16T01:17:16;96423.28;;;15.10;nan
34328;BME280;20588;48.840;10.064;2022-10-16T01:20:11;96425.13;;;15.10;nan
34328;BME280;20588;48.840;10.064;2022-10-16T01:31:32;96421.59;;;14.99;nan
34328;BME280;20588;48.840;10.064;2022-10-16T01:34:03;96414.06;;;14.98;nan
34328;BME280;20588;48.840;10.064;2022-10-16T01:36:47;96426.72;;;14.94;nan
34328;BME280;20588;48.840;10.064;2022-10-16T01:39:19;96424.28;;;14.88;nan
34328;BME280;20588;48.840;10.064;2022-10-16T01:41:51;96429.34;;;14.78;nan
34328;BME280;20588;48.840;10.064;2022-10-16T01:44:24;96425.59;;;14.69;nan
34328;BME280;20588;48.840;10.064;2022-10-16T01:46:53;96425.19;;;14.60;nan
34328;BME280;20588;48.840;10.064;2022-10-16T01:49:21;96431.78;;;14.51;nan
34328;BME280;20588;48.840;10.064;2022-10-16T01:51:50;96426.47;;;14.41;nan
34328;BME280;20588;48.840;10.064;2022-10-16T01:54:18;96437.19;;;14.33;nan
34328;BME280;20588;48.840;10.064;2022-10-16T01:56:47;96440.19;;;14.25;nan
34328;BME280;20588;48.840;10.064;2022-10-16T01:59:18;96442.56;;;14.15;nan
34328;BME280;20588;48.840;10.064;2022-10-16T02:01:49;96444.06;;;14.11;nan
34328;BME280;20588;48.840;10.064;2022-10-16T02:04:44;96444.44;;;14.03;nan
34328;BME280;20588;48.840;10.064;2022-10-16T02:07:11;96446.94;;;13.98;nan
34328;BME280;20588;48.840;10.064;2022-10-16T02:09:38;96448.19;;;13.95;nan
34328;BME280;20588;48.840;10.064;2022-10-16T02:12:26;96439.31;;;13.91;nan
34328;BME280;20588;48.840;10.064;2022-10-16T02:14:53;96430.44;;;13.87;nan
34328;BME280;20588;48.840;10.064;2022-10-16T02:17:20;96434.28;;;13.85;nan
34328;BME280;20588;48.840;10.064;2022-10-16T02:19:48;96441.94;;;13.80;nan
34328;BME280;20588;48.840;10.064;2022-10-16T02:22:23;96427.91;;;13.76;nan
34328;BME280;20588;48.840;10.064;2022-10-16T02:27:57;96430.88;;;13.68;nan
34328;BME280;20588;48.840;10.064;2022-10-16T02:30:39;96431.88;;;13.67;nan
34328;BME280;20588;48.840;10.064;2022-10-16T02:33:10;96422.88;;;13.69;nan
34328;BME280;20588;48.840;10.064;2022-10-16T02:35:39;96436.03;;;13.68;nan
34328;BME280;20588;48.840;10.064;2022-10-16T02:38:07;96430.34;;;13.66;nan
34328;BME280;20588;48.840;10.064;2022-10-16T02:40:34;96428.50;;;13.66;nan
34328;BME280;20588;48.840;10.064;2022-10-16T02:43:02;96424.13;;;13.67;nan
34328;BME280;20588;48.840;10.064;2022-10-16T02:45:29;96424.47;;;13.70;nan
34328;BME280;20588;48.840;10.064;2022-10-16T02:47:55;96428.84;;;13.70;nan
34328;BME280;20588;48.840;10.064;2022-10-16T02:50:21;96436.59;;;13.70;nan
34328;BME280;20588;48.840;10.064;2022-10-16T02:52:48;96429.31;;;13.67;nan
34328;BME280;20588;48.840;10.064;2022-10-16T02:55:14;96432.47;;;13.69;nan
34328;BME280;20588;48.840;10.064;2022-10-16T02:57:40;96447.75;;;13.70;nan
34328;BME280;20588;48.840;10.064;2022-10-16T03:00:08;96450.88;;;13.72;nan
34328;BME280;20588;48.840;10.064;2022-10-16T03:02:34;96465.38;;;13.73;nan
34328;BME280;20588;48.840;10.064;2022-10-16T03:05:01;96466.16;;;13.74;nan
34328;BME280;20588;48.840;10.064;2022-10-16T03:07:27;96469.06;;;13.77;nan
34328;BME280;20588;48.840;10.064;2022-10-16T03:09:53;96464.47;;;13.79;nan
34328;BME280;20588;48.840;10.064;2022-10-16T03:12:20;96469.94;;;13.83;nan
34328;BME280;20588;48.840;10.064;2022-10-16T03:14:46;96467.59;;;13.81;nan
34328;BME280;20588;48.840;10.064;2022-10-16T03:17:12;96473.78;;;13.80;nan
34328;BME280;20588;48.840;10.064;2022-10-16T03:19:39;96450.72;;;13.79;nan
34328;BME280;20588;48.840;10.064;2022-10-16T03:22:05;96449.19;;;13.78;nan
34328;BME280;20588;48.840;10.064;2022-10-16T03:24:31;96425.91;;;13.78;nan
34328;BME280;20588;48.840;10.064;2022-10-16T03:26:57;96407.78;;;13.78;nan
34328;BME280;20588;48.840;10.064;2022-10-16T03:29:23;96406.75;;;13.79;nan
34328;BME280;20588;48.840;10.064;2022-10-16T03:31:51;96417.44;;;13.82;nan
34328;BME280;20588;48.840;10.064;2022-10-16T03:34:17;96406.41;;;13.87;nan
34328;BME280;20588;48.840;10.064;2022-10-16T03:36:43;96412.66;;;13.91;nan
34328;BME280;20588;48.840;10.064;2022-10-16T03:39:09;96402.09;;;13.92;nan
34328;BME280;20588;48.840;10.064;2022-10-16T03:41:35;96405.47;;;13.93;nan
34328;BME280;20588;48.840;10.064;2022-10-16T03:44:01;96416.69;;;14.15;nan
34328;BME280;20588;48.840;10.064;2022-10-16T03:46:27;96425.47;;;14.14;nan
34328;BME280;20588;48.840;10.064;2022-10-16T03:48:53;96424.22;;;14.16;nan
34328;BME280;20588;48.840;10.064;2022-10-16T03:51:19;96433.66;;;14.39;nan
34328;BME280;20588;48.840;10.064;2022-10-16T03:53:45;96427.63;;;14.50;nan
34328;BME280;20588;48.840;10.064;2022-10-16T03:56:11;96423.78;;;14.52;nan
34328;BME280;20588;48.840;10.064;2022-10-16T03:58:37;96421.03;;;14.59;nan
34328;BME280;20588;48.840;10.064;2022-10-16T04:01:03;96420.31;;;14.64;nan
34328;BME280;20588;48.840;10.064;2022-10-16T04:03:30;96433.13;;;14.70;nan
34328;BME280;20588;48.840;10.064;2022-10-16T04:05:56;96428.03;;;14.75;nan
34328;BME280;20588;48.840;10.064;2022-10-16T04:08:22;96431.13;;;14.77;nan
34328;BME280;20588;48.840;10.064;2022-10-16T04:10:48;96424.41;;;14.76;nan
34328;BME280;20588;48.840;10.064;2022-10-16T04:13:14;96432.31;;;14.70;nan
34328;BME280;20588;48.840;10.064;2022-10-16T04:15:41;96431.94;;;14.61;nan
34328;BME280;20588;48.840;10.064;2022-10-16T04:18:07;96425.91;;;14.56;nan
34328;BME280;20588;48.840;10.064;2022-10-16T04:20:33;96430.78;;;14.52;nan
34328;BME280;20588;48.840;10.064;2022-10-16T04:22:59;96427.47;;;14.57;nan
34328;BME280;20588;48.840;10.064;2022-10-16T04:25:26;96444.50;;;14.52;nan
34328;BME280;20588;48.840;10.064;2022-10-16T04:27:53;96451.31;;;14.42;nan
34328;BME280;20588;48.840;10.064;2022-10-16T04:30:20;96455.56;;;14.31;nan
34328;BME280;20588;48.840;10.064;2022-10-16T04:32:50;96453.13;;;14.25;nan
34328;BME280;20588;48.840;10.064;2022-10-16T04:35:21;96455.28;;;14.16;nan
34328;BME280;20588;48.840;10.064;2022-10-16T04:37:47;96454.41;;;14.11;nan
34328;BME280;20588;48.840;10.064;2022-10-16T04:40:14;96459.72;;;14.04;nan
34328;BME280;20588;48.840;10.064;2022-10-16T04:42:40;96458.06;;;13.98;nan
34328;BME280;20588;48.840;10.064;2022-10-16T04:45:07;96463.94;;;13.94;nan
34328;BME280;20588;48.840;10.064;2022-10-16T04:47:33;96461.25;;;13.89;nan
34328;BME280;20588;48.840;10.064;2022-10-16T04:50:00;96471.28;;;13.85;nan
34328;BME280;20588;48.840;10.064;2022-10-16T04:52:28;96471.19;;;13.80;nan
34328;BME280;20588;48.840;10.064;2022-10-16T04:54:54;96478.38;;;13.78;nan
34328;BME280;20588;48.840;10.064;2022-10-16T04:57:22;96476.03;;;13.77;nan
34328;BME280;20588;48.840;10.064;2022-10-16T04:59:48;96475.09;;;13.83;nan
34328;BME280;20588;48.840;10.064;2022-10-16T05:02:14;96472.22;;;13.79;nan
34328;BME280;20588;48.840;10.064;2022-10-16T05:04:40;96481.22;;;13.77;nan
34328;BME280;20588;48.840;10.064;2022-10-16T05:07:06;96470.09;;;13.76;nan
34328;BME280;20588;48.840;10.064;2022-10-16T05:09:32;96472.91;;;13.75;nan
34328;BME280;20588;48.840;10.064;2022-10-16T05:11:58;96471.78;;;13.71;nan
34328;BME280;20588;48.840;10.064;2022-10-16T05:14:24;96471.78;;;13.71;nan
34328;BME280;20588;48.840;10.064;2022-10-16T05:16:50;96479.53;;;13.71;nan
34328;BME280;20588;48.840;10.064;2022-10-16T05:19:17;96471.25;;;13.69;nan
34328;BME280;20588;48.840;10.064;2022-10-16T05:21:43;96480.00;;;13.68;nan
34328;BME280;20588;48.840;10.064;2022-10-16T05:24:09;96480.47;;;13.65;nan
34328;BME280;20588;48.840;10.064;2022-10-16T05:26:35;96481.81;;;13.67;nan
34328;BME280;20588;48.840;10.064;2022-10-16T05:29:01;96483.38;;;13.68;nan
34328;BME280;20588;48.840;10.064;2022-10-16T05:31:28;96482.94;;;13.71;nan
34328;BME280;20588;48.840;10.064;2022-10-16T05:34:03;96479.53;;;13.82;nan
34328;BME280;20588;48.840;10.064;2022-10-16T05:36:29;96485.00;;;13.86;nan
34328;BME280;20588;48.840;10.064;2022-10-16T05:38:55;96494.88;;;13.89;nan
34328;BME280;20588;48.840;10.064;2022-10-16T05:41:22;96484.00;;;13.87;nan
34328;BME280;20588;48.840;10.064;2022-10-16T05:43:49;96493.31;;;13.88;nan
34328;BME280;20588;48.840;10.064;2022-10-16T05:46:16;96500.06;;;13.89;nan
34328;BME280;20588;48.840;10.064;2022-10-16T05:48:42;96499.28;;;13.88;nan
34328;BME280;20588;48.840;10.064;2022-10-16T05:51:11;96507.28;;;13.87;nan
34328;BME280;20588;48.840;10.064;2022-10-16T05:53:38;96498.72;;;13.86;nan
34328;BME280;20588;48.840;10.064;2022-10-16T05:56:06;96501.09;;;13.88;nan
34328;BME280;20588;48.840;10.064;2022-10-16T05:58:37;96497.47;;;13.89;nan
34328;BME280;20588;48.840;10.064;2022-10-16T06:01:05;96503.78;;;13.93;nan
34328;BME280;20588;48.840;10.064;2022-10-16T06:03:33;96498.94;;;13.96;nan
34328;BME280;20588;48.840;10.064;2022-10-16T06:05:59;96503.19;;;14.02;nan
34328;BME280;20588;48.840;10.064;2022-10-16T06:08:32;96509.22;;;14.08;nan
34328;BME280;20588;48.840;10.064;2022-10-16T06:11:04;96512.16;;;14.11;nan
34328;BME280;20588;48.840;10.064;2022-10-16T06:13:30;96516.63;;;14.16;nan
34328;BME280;20588;48.840;10.064;2022-10-16T06:15:58;96518.28;;;14.22;nan
34328;BME280;20588;48.840;10.064;2022-10-16T06:18:26;96518.38;;;14.27;nan
34328;BME280;20588;48.840;10.064;2022-10-16T06:20:53;96523.44;;;14.33;nan
34328;BME280;20588;48.840;10.064;2022-10-16T06:23:19;96524.28;;;14.39;nan
34328;BME280;20588;48.840;10.064;2022-10-16T06:25:45;96526.75;;;14.45;nan
34328;BME280;20588;48.840;10.064;2022-10-16T06:28:13;96527.38;;;14.52;nan
34328;BME280;20588;48.840;10.064;2022-10-16T06:30:39;96531.59;;;14.59;nan
34328;BME280;20588;48.840;10.064;2022-10-16T06:33:05;96533.81;;;14.67;nan
34328;BME280;20588;48.840;10.064;2022-10-16T06:35:31;96543.00;;;14.74;nan
34328;BME280;20588;48.840;10.064;2022-10-16T06:37:58;96547.34;;;14.85;nan
34328;BME280;20588;48.840;10.064;2022-10-16T06:40:24;96541.31;;;14.96;nan
34328;BME280;20588;48.840;10.064;2022-10-16T06:42:50;96541.19;;;15.08;nan
34328;BME280;20588;48.840;10.064;2022-10-16T06:45:17;96543.47;;;15.21;nan
34328;BME280;20588;48.840;10.064;2022-10-16T06:47:43;96557.34;;;15.31;nan
34328;BME280;20588;48.840;10.064;2022-10-16T06:50:09;96568.22;;;15.45;nan
34328;BME280;20588;48.840;10.064;2022-10-16T06:52:35;96574.63;;;15.59;nan
34328;BME280;20588;48.840;10.064;2022-10-16T06:55:01;96568.31;;;15.71;nan
34328;BME280;20588;48.840;10.064;2022-10-16T06:57:28;96572.16;;;15.90;nan
34328;BME280;20588;48.840;10.064;2022-10-16T06:59:55;96569.34;;;16.13;nan
34328;BME280;20588;48.840;10.064;2022-10-16T07:02:21;96567.25;;;16.37;nan
34328;BME280;20588;48.840;10.064;2022-10-16T07:04:47;96570.69;;;16.69;nan
34328;BME280;20588;48.840;10.064;2022-10-16T07:07:13;96571.72;;;16.95;nan
34328;BME280;20588;48.840;10.064;2022-10-16T07:09:39;96564.88;;;17.20;nan
34328;BME280;20588;48.840;10.064;2022-10-16T07:12:05;96567.34;;;17.42;nan
34328;BME280;20588;48.840;10.064;2022-10-16T07:14:32;96569.00;;;17.53;nan
34328;BME280;20588;48.840;10.064;2022-10-16T07:16:58;96568.53;;;17.61;nan
34328;BME280;20588;48.840;10.064;2022-10-16T07:19:24;96571.19;;;17.66;nan
34328;BME280;20588;48.840;10.064;2022-10-16T07:21:51;96571.78;;;17.88;nan
34328;BME280;20588;48.840;10.064;2022-10-16T07:24:17;96570.38;;;18.27;nan
34328;BME280;20588;48.840;10.064;2022-10-16T07:26:44;96581.16;;;18.61;nan
34328;BME280;20588;48.840;10.064;2022-10-16T07:29:19;96586.13;;;18.77;nan
34328;BME280;20588;48.840;10.064;2022-10-16T07:31:46;96588.78;;;18.97;nan
34328;BME280;20588;48.840;10.064;2022-10-16T07:34:14;96596.84;;;18.96;nan
34328;BME280;20588;48.840;10.064;2022-10-16T07:36:40;96589.28;;;18.99;nan
34328;BME280;20588;48.840;10.064;2022-10-16T07:39:07;96598.13;;;18.93;nan
34328;BME280;20588;48.840;10.064;2022-10-16T07:41:33;96598.66;;;18.90;nan
34328;BME280;20588;48.840;10.064;2022-10-16T07:44:03;96603.88;;;18.95;nan
34328;BME280;20588;48.840;10.064;2022-10-16T07:46:29;96600.25;;;19.06;nan
34328;BME280;20588;48.840;10.064;2022-10-16T07:48:56;96612.78;;;19.24;nan
34328;BME280;20588;48.840;10.064;2022-10-16T07:51:24;96612.25;;;19.62;nan
34328;BME280;20588;48.840;10.064;2022-10-16T07:53:51;96612.72;;;19.75;nan
34328;BME280;20588;48.840;10.064;2022-10-16T07:56:18;96612.91;;;20.13;nan
34328;BME280;20588;48.840;10.064;2022-10-16T07:58:44;96620.97;;;20.22;nan
34328;BME280;20588;48.840;10.064;2022-10-16T08:01:15;96618.63;;;20.20;nan
34328;BME280;20588;48.840;10.064;2022-10-16T08:03:46;96619.66;;;20.24;nan
34328;BME280;20588;48.840;10.064;2022-10-16T08:06:13;96631.16;;;20.23;nan
34328;BME280;20588;48.840;10.064;2022-10-16T08:08:39;96636.03;;;20.45;nan
34328;BME280;20588;48.840;10.064;2022-10-16T08:11:05;96634.72;;;20.91;nan
34328;BME280;20588;48.840;10.064;2022-10-16T08:13:32;96640.25;;;21.28;nan
34328;BME280;20588;48.840;10.064;2022-10-16T08:15:58;96641.81;;;21.29;nan
34328;BME280;20588;48.840;10.064;2022-10-16T08:18:24;96642.16;;;21.17;nan
34328;BME280;20588;48.840;10.064;2022-10-16T08:20:58;96648.41;;;21.21;nan
34328;BME280;20588;48.840;10.064;2022-10-16T08:23:24;96656.06;;;21.13;nan
34328;BME280;20588;48.840;10.064;2022-10-16T08:25:52;96654.88;;;20.90;nan
34328;BME280;20588;48.840;10.064;2022-10-16T08:28:19;96652.13;;;20.72;nan
34328;BME280;20588;48.840;10.064;2022-10-16T08:30:45;96654.38;;;20.40;nan
34328;BME280;20588;48.840;10.064;2022-10-16T08:33:11;96661.44;;;20.34;nan
34328;BME280;20588;48.840;10.064;2022-10-16T08:35:37;96667.47;;;20.30;nan
34328;BME280;20588;48.840;10.064;2022-10-16T08:38:04;96670.13;;;20.10;nan
34328;BME280;20588;48.840;10.064;2022-10-16T08:40:32;96667.00;;;20.03;nan
34328;BME280;20588;48.840;10.064;2022-10-16T08:45:57;96668.81;;;20.12;nan
34328;BME280;20588;48.840;10.064;2022-10-16T08:48:36;96661.81;;;19.98;nan
34328;BME280;20588;48.840;10.064;2022-10-16T08:51:08;96661.28;;;19.91;nan
34328;BME280;20588;48.840;10.064;2022-10-16T08:53:57;96666.22;;;19.92;nan
34328;BME280;20588;48.840;10.064;2022-10-16T08:56:25;96666.75;;;19.94;nan
34328;BME280;20588;48.840;10.064;2022-10-16T08:58:52;96659.69;;;20.05;nan
34328;BME280;20588;48.840;10.064;2022-10-16T09:01:21;96663.25;;;20.39;nan
34328;BME280;20588;48.840;10.064;2022-10-16T09:20:57;96672.00;;;21.50;nan
34328;BME280;20588;48.840;10.064;2022-10-16T09:23:29;96679.75;;;21.65;nan
34328;BME280;20588;48.840;10.064;2022-10-16T09:25:56;96681.84;;;21.63;nan
34328;BME280;20588;48.840;10.064;2022-10-16T09:28:24;96687.78;;;21.74;nan
34328;BME280;20588;48.840;10.064;2022-10-16T09:30:50;96693.47;;;21.86;nan
34328;BME280;20588;48.840;10.064;2022-10-16T09:33:21;96698.94;;;21.89;nan
34328;BME280;20588;48.840;10.064;2022-10-16T09:35:56;96703.63;;;21.92;nan
34328;BME280;20588;48.840;10.064;2022-10-16T09:38:27;96707.63;;;21.85;nan
34328;BME280;20588;48.840;10.064;2022-10-16T09:40:54;96701.94;;;21.78;nan
34328;BME280;20588;48.840;10.064;2022-10-16T09:43:41;96700.16;;;21.68;nan
34328;BME280;20588;48.840;10.064;2022-10-16T09:46:34;96703.22;;;21.47;nan
34328;BME280;20588;48.840;10.064;2022-10-16T09:49:03;96720.53;;;21.42;nan
34328;BME280;20588;48.840;10.064;2022-10-16T09:51:37;96719.25;;;21.40;nan
34328;BME280;20588;48.840;10.064;2022-10-16T09:54:14;96715.84;;;21.39;nan
34328;BME280;20588;48.840;10.064;2022-10-16T09:56:41;96709.50;;;21.46;nan
34328;BME280;20588;48.840;10.064;2022-10-16T09:59:15;96707.50;;;21.66;nan
34328;BME280;20588;48.840;10.064;2022-10-16T10:01:49;96707.94;;;21.78;nan
34328;BME280;20588;48.840;10.064;2022-10-16T10:04:20;96706.19;;;22.02;nan
34328;BME280;20588;48.840;10.064;2022-10-16T10:06:46;96710.72;;;22.20;nan
34328;BME280;20588;48.840;10.064;2022-10-16T10:11:57;96707.78;;;22.50;nan
34328;BME280;20588;48.840;10.064;2022-10-16T10:14:36;96712.84;;;22.65;nan
34328;BME280;20588;48.840;10.064;2022-10-16T10:17:12;96708.59;;;22.69;nan
34328;BME280;20588;48.840;10.064;2022-10-16T10:19:48;96711.66;;;22.76;nan
34328;BME280;20588;48.840;10.064;2022-10-16T10:22:24;96709.56;;;22.73;nan
34328;BME280;20588;48.840;10.064;2022-10-16T10:25:07;96720.25;;;22.58;nan
34328;BME280;20588;48.840;10.064;2022-10-16T10:27:57;96723.41;;;22.60;nan
34328;BME280;20588;48.840;10.064;2022-10-16T10:33:24;96713.59;;;22.89;nan
34328;BME280;20588;48.840;10.064;2022-10-16T10:38:50;96718.63;;;23.23;nan
34328;BME280;20588;48.840;10.064;2022-10-16T11:03:13;96721.25;;;24.78;nan
34328;BME280;20588;48.840;10.064;2022-10-16T11:06:08;96722.44;;;25.22;nan
34328;BME280;20588;48.840;10.064;2022-10-16T11:08:53;96726.06;;;25.48;nan
34328;BME280;20588;48.840;10.064;2022-10-16T11:25:46;96731.47;;;27.81;nan
34328;BME280;20588;48.840;10.064;2022-10-16T11:35:59;96722.81;;;28.93;nan
34328;BME280;20588;48.840;10.064;2022-10-16T11:41:03;96725.41;;;29.10;nan
34328;BME280;20588;48.840;10.064;2022-10-16T11:43:38;96710.97;;;29.40;nan
34328;BME280;20588;48.840;10.064;2022-10-16T11:46:17;96710.81;;;29.57;nan
34328;BME280;20588;48.840;10.064;2022-10-16T11:48:57;96706.63;;;29.56;nan
34328;BME280;20588;48.840;10.064;2022-10-16T11:51:33;96713.56;;;29.49;nan
34328;BME280;20588;48.840;10.064;2022-10-16T11:54:28;96706.72;;;29.81;nan
34328;BME280;20588;48.840;10.064;2022-10-16T11:57:02;96705.66;;;29.94;nan
34328;BME280;20588;48.840;10.064;2022-10-16T11:59:55;96705.88;;;30.01;nan
34328;BME280;20588;48.840;10.064;2022-10-16T12:05:50;96709.66;;;30.12;nan
34328;BME280;20588;48.840;10.064;2022-10-16T12:08:15;96696.22;;;30.29;nan
34328;BME280;20588;48.840;10.064;2022-10-16T12:10:45;96701.75;;;30.48;nan
34328;BME280;20588;48.840;10.064;2022-10-16T12:13:31;96696.53;;;30.63;nan
34328;BME280;20588;48.840;10.064;2022-10-16T12:18:38;96697.22;;;29.92;nan
34328;BME280;20588;48.840;10.064;2022-10-16T12:21:05;96702.94;;;29.69;nan
34328;BME280;20588;48.840;10.064;2022-10-16T12:23:55;96696.66;;;29.53;nan
34328;BME280;20588;48.840;10.064;2022-10-16T12:26:33;96704.41;;;29.58;nan
34328;BME280;20588;48.840;10.064;2022-10-16T12:29:57;96699.50;;;29.48;nan
34328;BME280;20588;48.840;10.064;2022-10-16T12:31:58;96698.53;;;29.32;nan
34328;BME280;20588;48.840;10.064;2022-10-16T12:34:42;96700.25;;;29.37;nan
34328;BME280;20588;48.840;10.064;2022-10-16T12:37:35;96702.69;;;29.42;nan
34328;BME280;20588;48.840;10.064;2022-10-16T12:40:14;96700.22;;;28.96;nan
34328;BME280;20588;48.840;10.064;2022-10-16T12:42:41;96692.53;;;28.74;nan
34328;BME280;20588;48.840;10.064;2022-10-16T12:45:30;96697.69;;;28.41;nan
34328;BME280;20588;48.840;10.064;2022-10-16T12:47:59;96696.97;;;28.24;nan
34328;BME280;20588;48.840;10.064;2022-10-16T12:50:30;96694.31;;;28.32;nan
34328;BME280;20588;48.840;10.064;2022-10-16T12:52:57;96699.91;;;28.68;nan
34328;BME280;20588;48.840;10.064;2022-10-16T12:55:25;96691.97;;;28.89;nan
34328;BME280;20588;48.840;10.064;2022-10-16T12:58:27;96697.66;;;29.08;nan
34328;BME280;20588;48.840;10.064;2022-10-16T13:01:06;96700.06;;;29.21;nan
34328;BME280;20588;48.840;10.064;2022-10-16T13:09:33;96698.38;;;28.67;nan
34328;BME280;20588;48.840;10.064;2022-10-16T13:15:01;96708.50;;;28.94;nan
34328;BME280;20588;48.840;10.064;2022-10-16T13:17:39;96710.59;;;28.80;nan
34328;BME280;20588;48.840;10.064;2022-10-16T13:28:14;96716.44;;;27.56;nan
34328;BME280;20588;48.840;10.064;2022-10-16T13:30:45;96717.22;;;27.39;nan
34328;BME280;20588;48.840;10.064;2022-10-16T13:35:53;96716.44;;;27.39;nan
34328;BME280;20588;48.840;10.064;2022-10-16T13:38:21;96718.63;;;27.28;nan
34328;BME280;20588;48.840;10.064;2022-10-16T13:43:24;96725.41;;;26.95;nan
34328;BME280;20588;48.840;10.064;2022-10-16T13:46:06;96728.00;;;26.70;nan
34328;BME280;20588;48.840;10.064;2022-10-16T13:48:33;96723.84;;;26.46;nan
34328;BME280;20588;48.840;10.064;2022-10-16T13:51:05;96729.06;;;26.29;nan
34328;BME280;20588;48.840;10.064;2022-10-16T13:53:34;96735.22;;;26.16;nan
34328;BME280;20588;48.840;10.064;2022-10-16T13:56:03;96728.94;;;26.04;nan
34328;BME280;20588;48.840;10.064;2022-10-16T13:58:29;96734.16;;;25.95;nan
34328;BME280;20588;48.840;10.064;2022-10-16T14:03:23;96734.34;;;25.77;nan
34328;BME280;20588;48.840;10.064;2022-10-16T14:05:53;96734.81;;;25.79;nan
34328;BME280;20588;48.840;10.064;2022-10-16T14:08:19;96727.19;;;25.99;nan
34328;BME280;20588;48.840;10.064;2022-10-16T14:10:49;96732.06;;;26.36;nan
34328;BME280;20588;48.840;10.064;2022-10-16T14:13:24;96725.97;;;26.67;nan
34328;BME280;20588;48.840;10.064;2022-10-16T14:15:52;96725.22;;;26.92;nan
34328;BME280;20588;48.840;10.064;2022-10-16T14:18:23;96720.75;;;27.09;nan
34328;BME280;20588;48.840;10.064;2022-10-16T14:20:51;96723.88;;;27.20;nan
34328;BME280;20588;48.840;10.064;2022-10-16T14:23:37;96737.56;;;27.05;nan
34328;BME280;20588;48.840;10.064;2022-10-16T14:28:37;96738.38;;;26.27;nan
34328;BME280;20588;48.840;10.064;2022-10-16T14:31:33;96736.53;;;26.05;nan
34328;BME280;20588;48.840;10.064;2022-10-16T14:33:59;96737.16;;;25.80;nan
34328;BME280;20588;48.840;10.064;2022-10-16T14:36:27;96739.03;;;25.58;nan
34328;BME280;20588;48.840;10.064;2022-10-16T14:41:23;96735.78;;;25.25;nan
34328;BME280;20588;48.840;10.064;2022-10-16T14:43:55;96732.63;;;25.01;nan
34328;BME280;20588;48.840;10.064;2022-10-16T14:46:36;96735.94;;;24.93;nan
34328;BME280;20588;48.840;10.064;2022-10-16T14:49:15;96732.94;;;24.86;nan
34328;BME280;20588;48.840;10.064;2022-10-16T14:51:43;96736.09;;;24.74;nan
34328;BME280;20588;48.840;10.064;2022-10-16T14:54:12;96727.28;;;24.52;nan
34328;BME280;20588;48.840;10.064;2022-10-16T14:56:53;96735.63;;;24.27;nan
34328;BME280;20588;48.840;10.064;2022-10-16T14:59:39;96734.84;;;24.13;nan
34328;BME280;20588;48.840;10.064;2022-10-16T15:02:33;96735.09;;;23.98;nan
34328;BME280;20588;48.840;10.064;2022-10-16T15:07:36;96731.31;;;23.72;nan
34328;BME280;20588;48.840;10.064;2022-10-16T15:10:03;96728.56;;;23.45;nan
34328;BME280;20588;48.840;10.064;2022-10-16T15:12:29;96733.84;;;23.26;nan
34328;BME280;20588;48.840;10.064;2022-10-16T15:14:55;96732.47;;;23.10;nan
34328;BME280;20588;48.840;10.064;2022-10-16T15:17:21;96732.09;;;22.98;nan
34328;BME280;20588;48.840;10.064;2022-10-16T15:19:47;96735.72;;;22.83;nan
34328;BME280;20588;48.840;10.064;2022-10-16T15:22:13;96739.50;;;22.72;nan
34328;BME280;20588;48.840;10.064;2022-10-16T15:24:39;96737.06;;;22.57;nan
34328;BME280;20588;48.840;10.064;2022-10-16T15:27:05;96743.53;;;22.41;nan
34328;BME280;20588;48.840;10.064;2022-10-16T15:29:31;96740.31;;;22.21;nan
34328;BME280;20588;48.840;10.064;2022-10-16T15:31:57;96742.06;;;22.07;nan
34328;BME280;20588;48.840;10.064;2022-10-16T15:34:23;96741.88;;;21.93;nan
34328;BME280;20588;48.840;10.064;2022-10-16T15:36:49;96736.00;;;21.78;nan
34328;BME280;20588;48.840;10.064;2022-10-16T15:39:17;96746.84;;;21.61;nan